Time;durP1;ratioP1;P1;durP2;ratioP2;P2;SDS_P1;SDS_P2;PMS_P1;PMS_P2;Temp;Humidity;BMP_temperature;BMP_pressure;BME280_temperature;BME280_humidity;BME280_pressure;Samples;Min_cycle;Max_cycle;Signal;HPM_P1;HPM_P2
2022/10/05 00:01:51;;;;;;;9.80;6.00;;;;;;;;;;5091422;28;20241;-78
2022/10/05 00:04:20;;;;;;;7.10;6.20;;;;;;;;;;5076195;28;20647;-78
2022/10/05 00:06:55;;;;;;;7.00;5.90;;;;;;;;;;5076155;28;20234;-78
2022/10/05 00:09:25;;;;;;;9.10;6.33;;;;;;;;;;5076589;28;20214;-77
2022/10/05 00:11:53;;;;;;;8.40;5.83;;;;;;;;;;5076215;28;20241;-78
2022/10/05 00:14:24;;;;;;;8.97;5.83;;;;;;;;;;5075934;28;20214;-78
2022/10/05 00:16:53;;;;;;;8.43;6.00;;;;;;;;;;5076157;28;20268;-78
2022/10/05 00:19:22;;;;;;;9.53;6.40;;;;;;;;;;5075606;28;20230;-78
2022/10/05 00:21:51;;;;;;;8.20;6.47;;;;;;;;;;5091901;28;20237;-78
2022/10/05 00:24:21;;;;;;;7.73;6.10;;;;;;;;;;5095972;28;20218;-78
2022/10/05 00:26:51;;;;;;;8.07;6.23;;;;;;;;;;5095994;28;20591;-78
2022/10/05 00:29:25;;;;;;;10.13;6.53;;;;;;;;;;5095859;28;20182;-78
2022/10/05 00:31:53;;;;;;;8.33;6.07;;;;;;;;;;5094777;28;20308;-78
2022/10/05 00:34:22;;;;;;;10.07;6.30;;;;;;;;;;5084755;28;20687;-78
2022/10/05 00:36:50;;;;;;;10.10;6.10;;;;;;;;;;5094103;28;20285;-78
2022/10/05 00:39:19;;;;;;;8.37;6.37;;;;;;;;;;5095681;28;20228;-78
2022/10/05 00:41:56;;;;;;;8.50;6.57;;;;;;;;;;5096075;28;20267;-78
2022/10/05 00:44:31;;;;;;;9.53;6.67;;;;;;;;;;5095764;28;20632;-78
2022/10/05 00:47:05;;;;;;;6.83;6.13;;;;;;;;;;5092997;28;20243;-78
2022/10/05 00:49:42;;;;;;;7.10;6.30;;;;;;;;;;5094354;28;20717;-77
2022/10/05 00:52:19;;;;;;;9.50;6.57;;;;;;;;;;5094070;28;20670;-78
2022/10/05 00:54:50;;;;;;;11.23;6.17;;;;;;;;;;5095424;28;20236;-78
2022/10/05 00:57:25;;;;;;;7.00;6.30;;;;;;;;;;5095002;28;20221;-77
2022/10/05 00:59:59;;;;;;;8.27;6.37;;;;;;;;;;5080400;28;20304;-77
2022/10/05 01:02:30;;;;;;;6.97;6.27;;;;;;;;;;5075749;28;20286;-77
2022/10/05 01:05:06;;;;;;;6.70;5.60;;;;;;;;;;5075752;28;20202;-77
2022/10/05 01:07:39;;;;;;;8.50;6.57;;;;;;;;;;5074952;28;20292;-78
2022/10/05 01:10:11;;;;;;;7.77;6.27;;;;;;;;;;5075181;28;20223;-78
2022/10/05 01:12:44;;;;;;;9.63;6.60;;;;;;;;;;5082942;28;20215;-78
2022/10/05 01:15:15;;;;;;;7.30;6.60;;;;;;;;;;5085555;28;20286;-78
2022/10/05 01:17:47;;;;;;;8.40;6.20;;;;;;;;;;5081095;28;20248;-78
2022/10/05 01:20:27;;;;;;;9.87;6.90;;;;;;;;;;5074922;28;20317;-78
2022/10/05 01:23:13;;;;;;;7.27;6.33;;;;;;;;;;5075018;28;20203;-78
2022/10/05 01:25:47;;;;;;;9.20;6.40;;;;;;;;;;5074783;28;20199;-78
2022/10/05 01:28:20;;;;;;;8.67;6.67;;;;;;;;;;5077364;28;20197;-77
2022/10/05 01:30:53;;;;;;;8.37;7.07;;;;;;;;;;5085859;28;20198;-77
2022/10/05 01:33:26;;;;;;;8.87;6.77;;;;;;;;;;5074670;28;20703;-77
2022/10/05 01:36:00;;;;;;;8.77;7.50;;;;;;;;;;5074875;28;20215;-77
2022/10/05 01:38:34;;;;;;;12.30;7.43;;;;;;;;;;5074606;28;20245;-78
2022/10/05 01:41:07;;;;;;;8.43;7.03;;;;;;;;;;5074576;28;20264;-77
2022/10/05 01:43:40;;;;;;;9.40;7.10;;;;;;;;;;5074639;28;20637;-77
2022/10/05 01:46:15;;;;;;;7.60;6.90;;;;;;;;;;5074257;28;20242;-77
2022/10/05 01:48:48;;;;;;;10.53;7.33;;;;;;;;;;5074986;28;20327;-78
2022/10/05 01:51:19;;;;;;;8.77;7.50;;;;;;;;;;5073795;28;20293;-78
2022/10/05 01:53:54;;;;;;;8.20;7.07;;;;;;;;;;5074070;28;20262;-78
2022/10/05 01:56:25;;;;;;;10.17;7.10;;;;;;;;;;5074019;28;20202;-78
2022/10/05 01:59:00;;;;;;;8.87;6.70;;;;;;;;;;5085221;28;20256;-77
2022/10/05 02:01:32;;;;;;;8.10;7.30;;;;;;;;;;5093598;28;20248;-77
2022/10/05 02:04:03;;;;;;;11.30;7.60;;;;;;;;;;5089783;28;20218;-78
2022/10/05 02:06:33;;;;;;;8.13;7.00;;;;;;;;;;5073699;28;20704;-78
2022/10/05 02:09:06;;;;;;;11.33;7.20;;;;;;;;;;5074232;28;20252;-77
2022/10/05 02:11:35;;;;;;;9.37;7.40;;;;;;;;;;5074496;28;20226;-78
2022/10/05 02:14:08;;;;;;;8.33;7.07;;;;;;;;;;5073724;28;20653;-78
2022/10/05 02:16:38;;;;;;;7.63;6.77;;;;;;;;;;5073568;28;20249;-78
2022/10/05 02:19:13;;;;;;;10.30;7.20;;;;;;;;;;5076261;28;20265;-78
2022/10/05 02:21:44;;;;;;;8.83;6.40;;;;;;;;;;5091626;28;20613;-77
2022/10/05 02:24:17;;;;;;;9.50;6.27;;;;;;;;;;5073527;28;20256;-77
2022/10/05 02:26:46;;;;;;;7.83;6.50;;;;;;;;;;5073927;28;20233;-77
2022/10/05 02:29:18;;;;;;;8.43;6.70;;;;;;;;;;5074254;28;20205;-78
2022/10/05 02:31:49;;;;;;;8.77;6.57;;;;;;;;;;5073967;28;20264;-77
2022/10/05 02:34:22;;;;;;;8.17;6.40;;;;;;;;;;5073120;28;20268;-78
2022/10/05 02:36:52;;;;;;;8.47;7.07;;;;;;;;;;5073046;28;20285;-78
2022/10/05 02:39:26;;;;;;;7.73;5.87;;;;;;;;;;5073699;28;20754;-78
2022/10/05 02:41:59;;;;;;;7.77;6.40;;;;;;;;;;5073961;28;20241;-78
2022/10/05 02:44:31;;;;;;;10.07;6.37;;;;;;;;;;5073167;28;20313;-77
2022/10/05 02:47:03;;;;;;;7.33;6.10;;;;;;;;;;5080657;28;20241;-78
2022/10/05 02:49:34;;;;;;;6.50;5.40;;;;;;;;;;5090069;28;20245;-79
2022/10/05 02:52:06;;;;;;;9.50;6.50;;;;;;;;;;5093572;28;20190;-79
2022/10/05 02:54:39;;;;;;;8.47;6.77;;;;;;;;;;5093710;28;20253;-80
2022/10/05 02:57:11;;;;;;;7.97;5.83;;;;;;;;;;5093625;28;20186;-80
2022/10/05 02:59:44;;;;;;;6.80;6.10;;;;;;;;;;5093586;28;20252;-78
2022/10/05 03:02:14;;;;;;;8.37;6.13;;;;;;;;;;5093688;28;20197;-80
2022/10/05 03:04:49;;;;;;;11.40;6.97;;;;;;;;;;5093581;28;20266;-80
2022/10/05 03:07:19;;;;;;;7.50;6.70;;;;;;;;;;5093309;28;20228;-80
2022/10/05 03:09:51;;;;;;;10.57;6.53;;;;;;;;;;5093486;28;20197;-79
2022/10/05 03:12:28;;;;;;;8.37;6.20;;;;;;;;;;5093399;28;20273;-78
2022/10/05 03:15:02;;;;;;;9.90;6.23;;;;;;;;;;5092995;28;20229;-79
2022/10/05 03:17:35;;;;;;;8.37;6.37;;;;;;;;;;5092608;28;20181;-78
2022/10/05 03:20:08;;;;;;;9.40;6.30;;;;;;;;;;5073278;28;20241;-79
2022/10/05 03:22:47;;;;;;;8.00;6.80;;;;;;;;;;5073114;28;20186;-79
2022/10/05 03:25:20;;;;;;;8.07;6.70;;;;;;;;;;5072992;28;20602;-79
2022/10/05 03:27:53;;;;;;;7.67;6.53;;;;;;;;;;5072920;28;20225;-79
2022/10/05 03:30:25;;;;;;;8.90;6.20;;;;;;;;;;5073302;28;20194;-79
2022/10/05 03:32:57;;;;;;;8.63;6.47;;;;;;;;;;5072795;28;20240;-79
2022/10/05 03:35:30;;;;;;;8.90;7.03;;;;;;;;;;5072686;28;20223;-78
2022/10/05 03:38:04;;;;;;;9.20;7.27;;;;;;;;;;5073716;28;20187;-77
2022/10/05 03:40:35;;;;;;;9.03;6.90;;;;;;;;;;5073864;28;20671;-78
2022/10/05 03:43:16;;;;;;;7.53;6.83;;;;;;;;;;5077211;28;20219;-78
2022/10/05 03:45:49;;;;;;;8.03;6.67;;;;;;;;;;5089252;28;20217;-78
2022/10/05 03:48:20;;;;;;;7.87;7.13;;;;;;;;;;5088061;28;20246;-78
2022/10/05 03:50:52;;;;;;;8.53;7.33;;;;;;;;;;5097305;28;20647;-77
2022/10/05 03:53:22;;;;;;;8.17;6.77;;;;;;;;;;5097168;28;20253;-77
2022/10/05 03:55:54;;;;;;;9.80;7.47;;;;;;;;;;5096718;28;20230;-77
2022/10/05 03:58:26;;;;;;;7.20;6.40;;;;;;;;;;5094449;28;20229;-78
2022/10/05 04:00:58;;;;;;;9.60;6.97;;;;;;;;;;5092698;28;20202;-77
2022/10/05 04:03:31;;;;;;;9.33;6.97;;;;;;;;;;5096460;28;20256;-78
2022/10/05 04:06:03;;;;;;;8.03;7.23;;;;;;;;;;5096468;28;20248;-78
2022/10/05 04:08:35;;;;;;;8.10;6.93;;;;;;;;;;5096417;28;20226;-78
2022/10/05 04:11:06;;;;;;;8.97;7.43;;;;;;;;;;5096894;28;20543;-77
2022/10/05 04:13:36;;;;;;;11.13;7.37;;;;;;;;;;5095012;28;20257;-78
2022/10/05 04:16:08;;;;;;;8.90;7.67;;;;;;;;;;5096952;28;20289;-78
2022/10/05 04:18:38;;;;;;;11.77;7.40;;;;;;;;;;5075499;28;20210;-78
2022/10/05 04:21:09;;;;;;;9.97;7.37;;;;;;;;;;5091073;28;20245;-77
2022/10/05 04:23:45;;;;;;;7.40;6.70;;;;;;;;;;5096610;28;20644;-77
2022/10/05 04:26:15;;;;;;;10.07;6.80;;;;;;;;;;5085581;28;20264;-77
2022/10/05 04:28:49;;;;;;;9.47;7.43;;;;;;;;;;5076060;28;20281;-77
2022/10/05 04:31:24;;;;;;;8.57;7.20;;;;;;;;;;5075723;28;20236;-77
2022/10/05 04:33:57;;;;;;;13.33;7.33;;;;;;;;;;5075828;28;20317;-78
2022/10/05 04:36:28;;;;;;;10.00;7.40;;;;;;;;;;5075759;28;20202;-78
2022/10/05 04:39:03;;;;;;;10.13;7.23;;;;;;;;;;5077367;28;20240;-78
2022/10/05 04:41:42;;;;;;;7.87;7.07;;;;;;;;;;5096131;28;20221;-78
2022/10/05 04:44:18;;;;;;;8.43;7.10;;;;;;;;;;5096392;28;20568;-77
2022/10/05 04:46:59;;;;;;;7.90;7.07;;;;;;;;;;5095246;28;20201;-78
2022/10/05 04:49:42;;;;;;;8.87;7.23;;;;;;;;;;5095740;28;20198;-78
2022/10/05 04:52:15;;;;;;;8.23;6.90;;;;;;;;;;5095838;28;20535;-78
2022/10/05 04:54:48;;;;;;;11.27;7.37;;;;;;;;;;5090158;28;20230;-78
2022/10/05 04:57:20;;;;;;;9.87;7.07;;;;;;;;;;5095658;28;20240;-78
2022/10/05 05:00:00;;;;;;;9.63;7.50;;;;;;;;;;5095395;28;20300;-78
2022/10/05 05:02:35;;;;;;;9.23;7.80;;;;;;;;;;5092177;28;20210;-78
2022/10/05 05:05:25;;;;;;;9.33;7.37;;;;;;;;;;5095217;28;20286;-78
2022/10/05 05:07:59;;;;;;;9.40;7.50;;;;;;;;;;5080971;28;20237;-78
2022/10/05 05:10:42;;;;;;;8.63;7.17;;;;;;;;;;5074993;28;20255;-78
2022/10/05 05:13:19;;;;;;;7.80;7.00;;;;;;;;;;5075480;28;20305;-78
2022/10/05 05:15:52;;;;;;;9.40;7.30;;;;;;;;;;5078360;28;20582;-77
2022/10/05 05:18:31;;;;;;;9.83;7.30;;;;;;;;;;5074896;28;20206;-78
2022/10/05 05:21:03;;;;;;;9.30;7.70;;;;;;;;;;5074688;28;20297;-78
2022/10/05 05:23:36;;;;;;;9.73;8.37;;;;;;;;;;5078594;28;20253;-77
2022/10/05 05:26:08;;;;;;;9.40;7.83;;;;;;;;;;5094859;28;20237;-77
2022/10/05 05:28:41;;;;;;;11.70;7.77;;;;;;;;;;5094909;28;20198;-78
2022/10/05 05:31:13;;;;;;;8.10;7.10;;;;;;;;;;5094922;28;20229;-78
2022/10/05 05:33:49;;;;;;;10.87;7.83;;;;;;;;;;5094111;28;20240;-77
2022/10/05 05:36:41;;;;;;;11.67;7.27;;;;;;;;;;5074860;28;20233;-78
2022/10/05 05:39:16;;;;;;;8.97;7.70;;;;;;;;;;5060238;28;20233;-77
2022/10/05 05:41:48;;;;;;;9.00;7.77;;;;;;;;;;5074535;28;20246;-77
2022/10/05 05:44:20;;;;;;;9.20;7.47;;;;;;;;;;5074064;28;20318;-77
2022/10/05 05:46:53;;;;;;;8.60;7.53;;;;;;;;;;5074098;28;20297;-78
2022/10/05 05:49:47;;;;;;;12.43;7.53;;;;;;;;;;5073834;28;20708;-77
2022/10/05 05:52:19;;;;;;;8.07;7.13;;;;;;;;;;5074375;28;20229;-77
2022/10/05 05:54:50;;;;;;;10.20;7.00;;;;;;;;;;5074265;28;20737;-77
2022/10/05 05:57:21;;;;;;;8.43;7.03;;;;;;;;;;5074630;28;20273;-78
2022/10/05 05:59:55;;;;;;;9.63;7.63;;;;;;;;;;5074604;28;20230;-78
2022/10/05 06:02:26;;;;;;;9.23;7.60;;;;;;;;;;5079198;28;20245;-78
2022/10/05 06:04:59;;;;;;;9.50;7.80;;;;;;;;;;5093980;28;20279;-77
2022/10/05 06:07:30;;;;;;;10.50;7.30;;;;;;;;;;5091856;28;20681;-77
2022/10/05 06:10:02;;;;;;;8.83;7.07;;;;;;;;;;5073967;28;20233;-78
2022/10/05 06:12:34;;;;;;;8.60;7.20;;;;;;;;;;5073916;28;20716;-77
2022/10/05 06:15:06;;;;;;;9.60;6.73;;;;;;;;;;5074162;28;20637;-78
2022/10/05 06:17:38;;;;;;;11.07;7.90;;;;;;;;;;5075332;28;20221;-77
2022/10/05 06:20:12;;;;;;;8.80;6.70;;;;;;;;;;5073935;28;20285;-77
2022/10/05 06:22:42;;;;;;;8.87;7.97;;;;;;;;;;5074433;28;20240;-77
2022/10/05 06:25:17;;;;;;;9.97;7.60;;;;;;;;;;5074151;28;20241;-78
2022/10/05 06:27:58;;;;;;;9.83;7.73;;;;;;;;;;5074152;28;20698;-77
2022/10/05 06:30:32;;;;;;;10.03;7.67;;;;;;;;;;5073877;28;20252;-77
2022/10/05 06:33:06;;;;;;;9.80;7.63;;;;;;;;;;5073307;28;20272;-77
2022/10/05 06:35:42;;;;;;;8.67;7.77;;;;;;;;;;5074147;28;20711;-77
2022/10/05 06:38:26;;;;;;;11.33;8.20;;;;;;;;;;5073976;28;20293;-77
2022/10/05 06:41:00;;;;;;;10.53;8.30;;;;;;;;;;5073281;28;20233;-78
2022/10/05 06:43:35;;;;;;;10.23;7.80;;;;;;;;;;5073345;28;20233;-78
2022/10/05 06:46:07;;;;;;;11.03;7.60;;;;;;;;;;5074130;28;20214;-78
2022/10/05 06:48:42;;;;;;;8.43;7.60;;;;;;;;;;5072987;28;20202;-78
2022/10/05 06:51:17;;;;;;;8.10;7.23;;;;;;;;;;5073540;28;20194;-78
2022/10/05 06:53:49;;;;;;;8.97;7.03;;;;;;;;;;5073551;28;20253;-77
2022/10/05 06:56:19;;;;;;;7.63;6.83;;;;;;;;;;5073475;28;20183;-78
2022/10/05 06:58:51;;;;;;;8.63;6.63;;;;;;;;;;5073530;28;20702;-78
2022/10/05 07:01:29;;;;;;;10.43;7.30;;;;;;;;;;5077316;28;20689;-78
2022/10/05 07:04:06;;;;;;;7.83;6.93;;;;;;;;;;5073018;28;20301;-78
2022/10/05 07:06:38;;;;;;;8.43;7.13;;;;;;;;;;5073646;28;20190;-78
2022/10/05 07:09:18;;;;;;;8.83;7.17;;;;;;;;;;5073309;28;20294;-78
2022/10/05 07:12:01;;;;;;;10.60;6.90;;;;;;;;;;5073391;28;20240;-78
2022/10/05 07:14:37;;;;;;;9.63;6.57;;;;;;;;;;5079010;28;20230;-78
2022/10/05 07:17:11;;;;;;;8.30;7.50;;;;;;;;;;5084081;28;20209;-78
2022/10/05 07:19:43;;;;;;;9.50;7.27;;;;;;;;;;5097344;28;20281;-78
2022/10/05 07:22:22;;;;;;;8.60;7.13;;;;;;;;;;5097551;28;20313;-78
2022/10/05 07:24:58;;;;;;;9.40;7.60;;;;;;;;;;5097692;28;20218;-78
2022/10/05 07:27:28;;;;;;;8.87;7.47;;;;;;;;;;5096447;28;20284;-78
2022/10/05 07:30:00;;;;;;;8.63;7.73;;;;;;;;;;5097242;28;20237;-78
2022/10/05 07:32:34;;;;;;;9.43;7.40;;;;;;;;;;5079972;28;20256;-77
2022/10/05 07:35:05;;;;;;;9.87;7.60;;;;;;;;;;5076783;28;20214;-78
2022/10/05 07:40:26;;;;;;;11.73;7.70;;;;;;;;;;5076257;28;20242;-78
2022/10/05 07:42:59;;;;;;;9.70;8.33;;;;;;;;;;5076914;28;20741;-78
2022/10/05 07:45:29;;;;;;;11.30;8.33;;;;;;;;;;5076587;28;20230;-78
2022/10/05 07:47:59;;;;;;;10.10;7.83;;;;;;;;;;5076986;28;20278;-78
2022/10/05 07:50:31;;;;;;;8.13;7.13;;;;;;;;;;5076442;28;20238;-78
2022/10/05 07:53:03;;;;;;;9.10;6.90;;;;;;;;;;5076383;28;20286;-78
2022/10/05 07:55:34;;;;;;;8.97;7.40;;;;;;;;;;5075799;28;20237;-78
2022/10/05 07:58:06;;;;;;;8.13;6.40;;;;;;;;;;5076895;28;20186;-77
2022/10/05 08:00:46;;;;;;;7.57;6.37;;;;;;;;;;5076698;28;20191;-77
2022/10/05 08:03:19;;;;;;;9.17;6.70;;;;;;;;;;5085285;28;20249;-78
2022/10/05 08:05:47;;;;;;;7.17;6.00;;;;;;;;;;5080414;28;20202;-78
2022/10/05 08:08:22;;;;;;;7.67;6.70;;;;;;;;;;5079377;28;20694;-78
2022/10/05 08:10:54;;;;;;;7.83;6.20;;;;;;;;;;5076967;28;20286;-78
2022/10/05 08:13:26;;;;;;;7.13;6.10;;;;;;;;;;5076883;28;20236;-78
2022/10/05 08:15:56;;;;;;;6.83;6.13;;;;;;;;;;5076576;28;20214;-78
2022/10/05 08:18:35;;;;;;;6.77;5.70;;;;;;;;;;5089309;28;20221;-77
2022/10/05 08:21:10;;;;;;;7.77;5.50;;;;;;;;;;5076172;28;20252;-78
2022/10/05 08:23:43;;;;;;;7.07;5.77;;;;;;;;;;5076366;28;20226;-78
2022/10/05 08:26:17;;;;;;;7.70;6.27;;;;;;;;;;5077992;28;20696;-78
2022/10/05 08:28:50;;;;;;;6.70;5.30;;;;;;;;;;5075714;28;20252;-78
2022/10/05 08:31:21;;;;;;;6.83;5.53;;;;;;;;;;5076585;28;20206;-78
2022/10/05 08:33:57;;;;;;;9.27;5.13;;;;;;;;;;5075809;28;20606;-78
2022/10/05 08:36:31;;;;;;;6.00;4.70;;;;;;;;;;5075599;28;20281;-78
2022/10/05 08:39:02;;;;;;;6.00;5.30;;;;;;;;;;5076066;28;20244;-78
2022/10/05 08:41:48;;;;;;;7.37;5.20;;;;;;;;;;5082853;28;20215;-78
2022/10/05 08:44:35;;;;;;;6.07;5.23;;;;;;;;;;5075601;28;20222;-78
2022/10/05 08:47:14;;;;;;;7.07;4.90;;;;;;;;;;5075907;28;20232;-78
2022/10/05 08:49:56;;;;;;;6.87;4.83;;;;;;;;;;5076055;28;20658;-77
2022/10/05 08:52:29;;;;;;;6.93;4.93;;;;;;;;;;5076043;28;20613;-77
2022/10/05 08:55:23;;;;;;;5.23;4.73;;;;;;;;;;5075428;28;20218;-77
2022/10/05 08:58:16;;;;;;;5.50;4.93;;;;;;;;;;5091343;28;20193;-77
2022/10/05 09:00:49;;;;;;;5.77;4.73;;;;;;;;;;5080735;28;20233;-77
2022/10/05 09:03:22;;;;;;;6.60;5.10;;;;;;;;;;5074719;28;20324;-77
2022/10/05 09:06:07;;;;;;;7.20;4.67;;;;;;;;;;5074965;28;20278;-77
2022/10/05 09:08:41;;;;;;;6.00;4.80;;;;;;;;;;5075109;28;20212;-77
2022/10/05 09:11:13;;;;;;;5.70;4.73;;;;;;;;;;5084721;28;20241;-78
2022/10/05 09:14:03;;;;;;;5.27;4.77;;;;;;;;;;5095356;28;20253;-77
2022/10/05 09:16:49;;;;;;;6.57;4.50;;;;;;;;;;5095276;28;20232;-77
2022/10/05 09:19:41;;;;;;;5.23;4.73;;;;;;;;;;5095228;28;20261;-77
2022/10/05 09:22:15;;;;;;;5.23;4.73;;;;;;;;;;5081190;28;20274;-78
2022/10/05 09:24:51;;;;;;;5.80;5.20;;;;;;;;;;5075006;28;20305;-77
2022/10/05 09:27:28;;;;;;;6.27;5.20;;;;;;;;;;5095055;28;20288;-77
2022/10/05 09:30:18;;;;;;;5.37;4.87;;;;;;;;;;5095040;28;20304;-77
2022/10/05 09:33:04;;;;;;;7.37;5.10;;;;;;;;;;5076965;28;20313;-77
2022/10/05 09:35:50;;;;;;;5.63;5.13;;;;;;;;;;5074598;28;20651;-77
2022/10/05 09:38:22;;;;;;;5.60;5.10;;;;;;;;;;5074047;28;20241;-78
2022/10/05 09:41:08;;;;;;;5.40;4.83;;;;;;;;;;5075444;28;20285;-78
2022/10/05 09:43:54;;;;;;;6.50;5.90;;;;;;;;;;5074560;28;20317;-78
2022/10/05 09:46:40;;;;;;;6.87;5.60;;;;;;;;;;5074123;28;20198;-78
2022/10/05 09:49:24;;;;;;;7.43;5.50;;;;;;;;;;5074461;28;20211;-78
2022/10/05 09:52:12;;;;;;;6.27;5.70;;;;;;;;;;5041934;28;20255;-78
2022/10/05 09:55:13;;;;;;;6.63;6.03;;;;;;;;;;5073953;28;20618;-77
2022/10/05 09:57:52;;;;;;;7.37;5.70;;;;;;;;;;5074019;28;20298;-78
2022/10/05 10:00:24;;;;;;;6.00;5.47;;;;;;;;;;5074074;28;20233;-78
2022/10/05 10:03:14;;;;;;;6.23;5.63;;;;;;;;;;5073269;28;20262;-78
2022/10/05 10:06:10;;;;;;;5.70;5.20;;;;;;;;;;5074120;28;20211;-78
2022/10/05 10:08:44;;;;;;;5.60;4.97;;;;;;;;;;5060464;28;20256;-78
2022/10/05 10:11:17;;;;;;;6.80;5.50;;;;;;;;;;5094392;28;20206;-78
2022/10/05 10:13:55;;;;;;;6.40;4.80;;;;;;;;;;5094365;28;20300;-78
2022/10/05 10:16:30;;;;;;;6.60;4.67;;;;;;;;;;5092244;28;20540;-78
2022/10/05 10:19:07;;;;;;;4.87;4.47;;;;;;;;;;5093421;28;20630;-78
2022/10/05 10:21:45;;;;;;;5.00;4.60;;;;;;;;;;5094409;28;20642;-78
2022/10/05 10:24:21;;;;;;;5.83;4.70;;;;;;;;;;5077705;28;20272;-78
2022/10/05 10:26:56;;;;;;;6.50;4.40;;;;;;;;;;5076064;28;20198;-78
2022/10/05 10:29:36;;;;;;;5.07;4.30;;;;;;;;;;5090368;28;20247;-78
2022/10/05 10:32:20;;;;;;;5.87;4.33;;;;;;;;;;5087715;28;20250;-78
2022/10/05 10:35:03;;;;;;;4.43;4.03;;;;;;;;;;5094139;28;20710;-78
2022/10/05 10:37:36;;;;;;;4.40;4.00;;;;;;;;;;5088023;28;20201;-78
2022/10/05 10:40:13;;;;;;;4.77;4.30;;;;;;;;;;5094113;28;20233;-78
2022/10/05 10:42:48;;;;;;;4.30;3.90;;;;;;;;;;5093993;28;20225;-78
2022/10/05 10:45:21;;;;;;;5.10;4.47;;;;;;;;;;5088454;28;20220;-78
2022/10/05 10:47:59;;;;;;;6.27;4.20;;;;;;;;;;5087922;28;20651;-78
2022/10/05 10:50:48;;;;;;;4.00;3.70;;;;;;;;;;5094694;28;20205;-78
2022/10/05 10:53:29;;;;;;;4.68;4.20;;;;;;;;;;5073331;28;20313;-78
2022/10/05 10:56:05;;;;;;;5.20;4.30;;;;;;;;;;5077574;28;20241;-78
2022/10/05 10:58:55;;;;;;;5.05;4.00;;;;;;;;;;5077653;28;20241;-77
2022/10/05 11:01:30;;;;;;;4.20;3.80;;;;;;;;;;5077055;28;20282;-78
2022/10/05 11:04:06;;;;;;;5.70;3.78;;;;;;;;;;5077363;28;20219;-79
2022/10/05 11:06:43;;;;;;;4.95;3.80;;;;;;;;;;5090968;28;20708;-78
2022/10/05 11:09:30;;;;;;;5.10;3.58;;;;;;;;;;5095699;28;20321;-78
2022/10/05 11:12:16;;;;;;;4.40;3.63;;;;;;;;;;5097974;28;20285;-78
2022/10/05 11:14:53;;;;;;;4.45;3.65;;;;;;;;;;5082156;28;20248;-77
2022/10/05 11:17:45;;;;;;;4.05;3.53;;;;;;;;;;5077467;28;20234;-78
2022/10/05 11:20:33;;;;;;;5.30;3.40;;;;;;;;;;5067831;28;20280;-78
2022/10/05 11:23:24;;;;;;;5.15;3.13;;;;;;;;;;5078175;28;20250;-78
2022/10/05 11:26:05;;;;;;;4.00;3.60;;;;;;;;;;5076773;28;20198;-77
2022/10/05 11:28:54;;;;;;;4.03;3.60;;;;;;;;;;5077059;28;20695;-78
2022/10/05 11:31:37;;;;;;;3.70;3.30;;;;;;;;;;5051899;28;20690;-78
2022/10/05 11:34:21;;;;;;;5.45;3.75;;;;;;;;;;5077190;28;20218;-78
2022/10/05 11:37:08;;;;;;;4.47;3.28;;;;;;;;;;5086641;28;20241;-78
2022/10/05 11:39:38;;;;;;;4.22;3.75;;;;;;;;;;5077663;28;20179;-78
2022/10/05 11:42:22;;;;;;;5.40;3.45;;;;;;;;;;5092178;28;20693;-78
2022/10/05 11:45:15;;;;;;;4.95;3.72;;;;;;;;;;5096725;28;20313;-78
2022/10/05 11:47:50;;;;;;;3.35;3.05;;;;;;;;;;5083388;28;20238;-77
2022/10/05 11:50:21;;;;;;;3.72;3.42;;;;;;;;;;5076534;28;20202;-78
2022/10/05 11:52:54;;;;;;;3.88;3.45;;;;;;;;;;5076613;28;20242;-78
2022/10/05 11:55:25;;;;;;;5.00;3.50;;;;;;;;;;5075875;28;20231;-78
2022/10/05 11:57:56;;;;;;;3.67;3.33;;;;;;;;;;5076653;28;20640;-78
2022/10/05 12:00:26;;;;;;;3.95;3.38;;;;;;;;;;5076627;28;20246;-78
2022/10/05 12:03:09;;;;;;;5.28;3.55;;;;;;;;;;5076058;28;20206;-78
2022/10/05 12:05:41;;;;;;;4.30;3.30;;;;;;;;;;5075962;28;20709;-77
2022/10/05 12:08:17;;;;;;;3.60;3.30;;;;;;;;;;5076683;28;20648;-77
2022/10/05 12:10:52;;;;;;;4.82;3.58;;;;;;;;;;5075879;28;20241;-78
2022/10/05 12:13:26;;;;;;;5.22;3.50;;;;;;;;;;5075714;28;20222;-77
2022/10/05 12:15:57;;;;;;;4.38;3.50;;;;;;;;;;5075828;28;20290;-77
2022/10/05 12:18:44;;;;;;;3.35;3.08;;;;;;;;;;5075972;28;20206;-78
2022/10/05 12:21:18;;;;;;;5.40;3.10;;;;;;;;;;5076276;28;20237;-78
2022/10/05 12:23:49;;;;;;;4.22;3.83;;;;;;;;;;5076118;28;20269;-78
2022/10/05 12:26:22;;;;;;;3.47;3.17;;;;;;;;;;5076999;28;20714;-78
2022/10/05 12:28:52;;;;;;;3.95;3.13;;;;;;;;;;5076132;28;20697;-78
2022/10/05 12:31:23;;;;;;;3.63;3.35;;;;;;;;;;5075044;28;20229;-78
2022/10/05 12:33:58;;;;;;;3.70;3.35;;;;;;;;;;5075412;28;20233;-78
2022/10/05 12:36:30;;;;;;;4.85;3.35;;;;;;;;;;5077240;28;20206;-78
2022/10/05 12:39:24;;;;;;;3.63;3.33;;;;;;;;;;5075458;28;20695;-78
2022/10/05 12:41:58;;;;;;;3.33;3.03;;;;;;;;;;5075345;28;20232;-78
2022/10/05 12:44:36;;;;;;;4.93;3.22;;;;;;;;;;5075714;28;20265;-78
2022/10/05 12:47:11;;;;;;;5.07;3.63;;;;;;;;;;5075104;28;20255;-78
2022/10/05 12:49:56;;;;;;;3.38;3.03;;;;;;;;;;5075853;28;20210;-78
2022/10/05 12:52:32;;;;;;;3.95;3.05;;;;;;;;;;5075011;28;20237;-78
2022/10/05 12:55:04;;;;;;;3.63;3.00;;;;;;;;;;5075142;28;20681;-78
2022/10/05 12:57:37;;;;;;;4.15;3.08;;;;;;;;;;5075159;28;20651;-78
2022/10/05 13:00:09;;;;;;;8.15;3.20;;;;;;;;;;5082196;28;20728;-78
2022/10/05 13:02:41;;;;;;;3.83;3.13;;;;;;;;;;5074903;28;20268;-78
2022/10/05 13:05:18;;;;;;;4.50;3.30;;;;;;;;;;5074783;28;20206;-79
2022/10/05 13:08:20;;;;;;;6.18;2.97;;;;;;;;;;5074979;28;20202;-79
2022/10/05 13:10:50;;;;;;;3.83;3.25;;;;;;;;;;5012968;28;20693;-79
2022/10/05 13:13:36;;;;;;;4.63;3.35;;;;;;;;;;5011903;28;20282;-78
2022/10/05 13:16:14;;;;;;;3.70;3.40;;;;;;;;;;5051943;28;20611;-78
2022/10/05 13:18:48;;;;;;;3.30;3.00;;;;;;;;;;5094220;28;20288;-79
2022/10/05 13:21:21;;;;;;;3.00;2.70;;;;;;;;;;5095247;28;20720;-79
2022/10/05 13:23:54;;;;;;;3.33;3.03;;;;;;;;;;5094584;28;20225;-78
2022/10/05 13:26:28;;;;;;;3.20;2.90;;;;;;;;;;5092112;28;20217;-78
2022/10/05 13:28:59;;;;;;;3.05;2.75;;;;;;;;;;5074438;28;20226;-77
2022/10/05 13:31:29;;;;;;;3.40;2.80;;;;;;;;;;5074264;28;20298;-78
2022/10/05 13:34:12;;;;;;;4.28;2.80;;;;;;;;;;5074390;28;20226;-79
2022/10/05 13:36:48;;;;;;;3.80;2.72;;;;;;;;;;5074228;28;20384;-78
2022/10/05 13:39:35;;;;;;;3.40;2.67;;;;;;;;;;5074531;28;20225;-78
2022/10/05 13:42:06;;;;;;;5.03;2.60;;;;;;;;;;5078254;28;20301;-78
2022/10/05 13:44:39;;;;;;;3.08;2.70;;;;;;;;;;5094388;28;20260;-78
2022/10/05 13:47:12;;;;;;;2.90;2.40;;;;;;;;;;5084787;28;20242;-77
2022/10/05 13:49:45;;;;;;;2.78;2.50;;;;;;;;;;5074289;28;20255;-78
2022/10/05 13:52:28;;;;;;;3.55;2.40;;;;;;;;;;5073865;28;20218;-78
2022/10/05 13:54:58;;;;;;;2.53;2.30;;;;;;;;;;5073820;28;20257;-78
2022/10/05 13:57:45;;;;;;;3.53;2.40;;;;;;;;;;5088067;28;20533;-78
2022/10/05 14:00:16;;;;;;;2.60;2.40;;;;;;;;;;5080174;28;20199;-78
2022/10/05 14:02:50;;;;;;;5.22;2.45;;;;;;;;;;5073951;28;20186;-78
2022/10/05 14:05:20;;;;;;;2.30;2.10;;;;;;;;;;5073649;28;20221;-78
2022/10/05 14:07:51;;;;;;;2.85;2.25;;;;;;;;;;5074091;28;20253;-78
2022/10/05 14:10:32;;;;;;;2.28;2.08;;;;;;;;;;5074002;28;20233;-78
2022/10/05 14:13:02;;;;;;;2.47;2.28;;;;;;;;;;5076129;28;20226;-78
2022/10/05 14:15:33;;;;;;;2.97;2.35;;;;;;;;;;5081573;28;20262;-78
2022/10/05 14:18:23;;;;;;;2.58;2.30;;;;;;;;;;5076612;28;20627;-78
2022/10/05 14:20:58;;;;;;;4.45;2.50;;;;;;;;;;5073572;28;20246;-78
2022/10/05 14:23:29;;;;;;;3.03;2.25;;;;;;;;;;5073109;28;20253;-78
2022/10/05 14:25:58;;;;;;;2.35;2.15;;;;;;;;;;5073219;28;20207;-78
2022/10/05 14:28:29;;;;;;;3.80;2.17;;;;;;;;;;5084980;28;20202;-78
2022/10/05 14:30:58;;;;;;;2.70;2.00;;;;;;;;;;5084990;28;20255;-78
2022/10/05 14:33:28;;;;;;;2.58;2.20;;;;;;;;;;5075439;28;20254;-78
2022/10/05 14:35:58;;;;;;;2.28;2.08;;;;;;;;;;5072262;28;20203;-79
2022/10/05 14:38:29;;;;;;;2.20;1.95;;;;;;;;;;5073712;28;20635;-78
2022/10/05 14:41:05;;;;;;;2.50;1.98;;;;;;;;;;5073704;28;20210;-78
2022/10/05 14:43:34;;;;;;;2.25;2.05;;;;;;;;;;5074100;28;20316;-78
2022/10/05 14:46:15;;;;;;;2.88;2.00;;;;;;;;;;5073313;28;20313;-79
2022/10/05 14:48:44;;;;;;;2.45;2.10;;;;;;;;;;5087485;28;20240;-79
2022/10/05 14:51:27;;;;;;;3.13;2.10;;;;;;;;;;5088453;28;20210;-79
2022/10/05 14:53:59;;;;;;;4.90;2.20;;;;;;;;;;5073073;28;20301;-78
2022/10/05 14:56:35;;;;;;;2.95;2.00;;;;;;;;;;5073180;28;20222;-78
2022/10/05 14:59:12;;;;;;;3.03;1.90;;;;;;;;;;5083634;28;20194;-78
2022/10/05 15:01:44;;;;;;;2.13;1.90;;;;;;;;;;5073004;28;20202;-78
2022/10/05 15:04:21;;;;;;;2.20;2.00;;;;;;;;;;5072889;28;20702;-78
2022/10/05 15:06:54;;;;;;;3.05;1.90;;;;;;;;;;5073010;28;20226;-79
2022/10/05 15:09:42;;;;;;;2.30;2.00;;;;;;;;;;5072974;28;20191;-78
2022/10/05 15:12:14;;;;;;;2.78;2.00;;;;;;;;;;5073343;28;20237;-79
2022/10/05 15:14:44;;;;;;;2.30;2.10;;;;;;;;;;5072731;28;20230;-78
2022/10/05 15:17:17;;;;;;;3.90;2.08;;;;;;;;;;5082376;28;20701;-78
2022/10/05 15:19:51;;;;;;;2.20;2.00;;;;;;;;;;5093477;28;20598;-79
2022/10/05 15:22:26;;;;;;;3.47;2.10;;;;;;;;;;5093352;28;20623;-78
2022/10/05 15:25:00;;;;;;;3.03;1.63;;;;;;;;;;5093106;28;20253;-78
2022/10/05 15:27:32;;;;;;;3.05;2.00;;;;;;;;;;5091977;28;20256;-78
2022/10/05 15:30:04;;;;;;;2.50;2.30;;;;;;;;;;5091521;28;20237;-79
2022/10/05 15:32:40;;;;;;;2.33;1.83;;;;;;;;;;5093389;28;20286;-78